createdAt,value
2018-05-11T00:00:24.869Z,71.90
2018-05-11T00:01:24.779Z,75.10
2018-05-11T00:02:24.689Z,70.90
2018-05-11T00:03:24.627Z,72.00
2018-05-11T00:04:24.501Z,73.70
2018-05-11T00:05:24.412Z,69.40
2018-05-11T00:06:24.320Z,68.00
2018-05-11T00:07:24.227Z,69.00
2018-05-11T00:08:24.169Z,68.70
2018-05-11T00:09:24.047Z,70.40
2018-05-11T00:10:23.958Z,73.50
2018-05-11T00:11:23.865Z,68.10
2018-05-11T00:12:23.772Z,65.70
2018-05-11T00:13:23.700Z,70.70
2018-05-11T00:14:23.619Z,68.20
2018-05-11T00:15:23.497Z,66.10
2018-05-11T00:16:23.408Z,65.90
2018-05-11T00:17:23.315Z,65.10
2018-05-11T00:18:23.225Z,65.70
2018-05-11T00:19:23.169Z,67.00
2018-05-11T00:20:23.139Z,67.70
2018-05-11T00:21:22.949Z,69.60
2018-05-11T00:22:22.863Z,70.80
2018-05-11T00:23:22.793Z,70.50
2018-05-11T00:24:22.710Z,72.70
2018-05-11T00:25:22.582Z,72.80
2018-05-11T00:26:22.493Z,70.50
2018-05-11T00:27:22.400Z,70.80
2018-05-11T00:28:22.313Z,68.90
2018-05-11T00:29:22.256Z,74.00
2018-05-11T00:30:22.126Z,69.50
2018-05-11T00:31:22.033Z,71.80
2018-05-11T00:32:21.945Z,70.50
2018-05-11T00:33:21.851Z,72.80
2018-05-11T00:34:21.868Z,69.70
2018-05-11T00:35:21.667Z,74.70
2018-05-11T00:36:21.582Z,79.00
2018-05-11T00:37:21.488Z,77.30
2018-05-11T00:38:21.392Z,79.50
2018-05-11T00:39:21.334Z,74.60
2018-05-11T00:40:21.212Z,77.60
2018-05-11T00:41:21.213Z,71.00
2018-05-11T00:42:21.026Z,72.50
2018-05-11T00:43:20.938Z,72.10
2018-05-11T00:44:20.878Z,73.30
2018-05-11T00:45:20.755Z,77.40
2018-05-11T00:46:20.660Z,74.40
2018-05-11T00:47:20.568Z,71.90
2018-05-11T00:48:20.577Z,71.20
2018-05-11T00:49:20.420Z,69.10
2018-05-11T00:50:20.294Z,70.20
2018-05-11T00:51:20.202Z,69.30
2018-05-11T00:52:20.114Z,69.80
2018-05-11T00:53:20.021Z,66.20
2018-05-11T00:54:19.956Z,71.80
2018-05-11T00:55:19.967Z,65.80
2018-05-11T00:56:19.744Z,63.90
2018-05-11T00:57:19.653Z,66.20
2018-05-11T00:58:19.559Z,63.80
2018-05-11T00:59:19.501Z,66.00
2018-05-11T01:00:19.381Z,64.60
2018-05-11T01:01:19.287Z,64.90
2018-05-11T01:02:19.288Z,64.00
2018-05-11T01:03:19.103Z,62.70
2018-05-11T01:04:19.042Z,67.90
2018-05-11T01:05:18.922Z,65.60
2018-05-11T01:06:18.825Z,66.70
2018-05-11T01:07:18.738Z,65.10
2018-05-11T01:08:18.644Z,64.90
2018-05-11T01:09:18.679Z,67.40
2018-05-11T01:10:18.462Z,65.90
2018-05-11T01:11:18.368Z,67.80
2018-05-11T01:12:18.280Z,66.60
2018-05-11T01:13:18.189Z,64.50
2018-05-11T01:14:18.124Z,68.90
2018-05-11T01:15:18.009Z,66.10
2018-05-11T01:16:17.998Z,67.00
2018-05-11T01:17:17.820Z,70.00
2018-05-11T01:18:17.729Z,69.60
2018-05-11T01:19:17.638Z,65.80
2018-05-11T01:20:17.576Z,69.60
2018-05-11T01:21:17.450Z,68.10
2018-05-11T01:22:17.364Z,62.40
2018-05-11T01:23:17.361Z,59.90
2018-05-11T01:24:17.182Z,61.80
2018-05-11T01:25:17.128Z,56.90
2018-05-11T01:26:16.994Z,60.20
2018-05-11T01:27:16.902Z,59.90
2018-05-11T01:28:16.812Z,60.30
2018-05-11T01:29:16.724Z,59.30
2018-05-11T01:30:16.752Z,56.90
2018-05-11T01:31:16.538Z,56.70
2018-05-11T01:32:16.444Z,60.90
2018-05-11T01:33:16.353Z,56.00
2018-05-11T01:34:16.261Z,55.10
2018-05-11T01:35:16.200Z,53.60
2018-05-11T01:36:16.078Z,54.20
2018-05-11T01:37:16.085Z,49.30
2018-05-11T01:38:15.894Z,52.10
2018-05-11T01:39:15.805Z,49.00
2018-05-11T01:40:15.744Z,51.30
2018-05-11T01:41:15.618Z,49.60
2018-05-11T01:42:15.529Z,48.60
2018-05-11T01:43:15.436Z,46.80
2018-05-11T01:44:15.345Z,46.40
2018-05-11T01:45:15.281Z,49.50
2018-05-11T01:46:15.172Z,47.90
2018-05-11T01:47:15.071Z,46.00
2018-05-11T01:48:14.980Z,49.10
2018-05-11T01:49:14.887Z,49.10
2018-05-11T01:50:14.827Z,50.70
2018-05-11T01:51:14.702Z,53.70
2018-05-11T01:52:14.611Z,52.90
2018-05-11T01:53:14.521Z,50.20
2018-05-11T01:54:14.426Z,51.10
2018-05-11T01:55:14.368Z,50.30
2018-05-11T01:56:14.244Z,52.50
2018-05-11T01:57:14.168Z,54.50
2018-05-11T01:58:14.058Z,52.30
2018-05-11T01:59:13.965Z,53.50
2018-05-11T02:00:13.908Z,53.40
2018-05-11T02:01:13.784Z,54.40
2018-05-11T02:02:13.691Z,57.90
2018-05-11T02:03:13.603Z,54.50
2018-05-11T02:04:13.508Z,57.50
2018-05-11T02:05:13.449Z,56.00
2018-05-11T02:06:13.327Z,56.60
2018-05-11T02:07:13.232Z,61.50
2018-05-11T02:08:13.139Z,56.70
2018-05-11T02:09:13.049Z,55.50
2018-05-11T02:10:12.988Z,57.00
2018-05-11T02:11:12.872Z,58.90
2018-05-11T02:12:12.773Z,58.70
2018-05-11T02:13:12.681Z,59.10
2018-05-11T02:14:12.670Z,60.00
2018-05-11T02:15:12.530Z,59.30
2018-05-11T02:16:12.409Z,57.10
2018-05-11T02:17:12.315Z,56.20
2018-05-11T02:18:12.221Z,56.80
2018-05-11T02:19:12.126Z,53.30
2018-05-11T02:20:12.065Z,55.90
2018-05-11T02:21:11.945Z,51.40
2018-05-11T02:22:11.853Z,52.80
2018-05-11T02:23:11.760Z,52.40
2018-05-11T02:24:11.667Z,50.20
2018-05-11T02:25:11.580Z,49.10
2018-05-11T02:26:11.513Z,48.80
2018-05-11T02:27:11.396Z,46.30
2018-05-11T02:28:11.302Z,46.70
2018-05-11T02:29:11.208Z,48.00
2018-05-11T02:30:11.117Z,48.40
2018-05-11T02:31:11.052Z,45.70
2018-05-11T02:32:10.935Z,45.70
2018-05-11T02:33:10.840Z,44.50
2018-05-11T02:34:10.755Z,44.60
2018-05-11T02:35:10.655Z,44.40
2018-05-11T02:36:10.593Z,43.40
2018-05-11T02:37:10.476Z,45.10
2018-05-11T02:38:10.380Z,43.90
2018-05-11T02:39:10.289Z,45.20
2018-05-11T02:40:10.194Z,41.40
2018-05-11T02:41:10.133Z,43.10
2018-05-11T02:42:10.008Z,42.00
2018-05-11T02:43:09.923Z,42.30
2018-05-11T02:44:09.822Z,43.40
2018-05-11T02:45:09.735Z,41.40
2018-05-11T02:46:09.673Z,43.20
2018-05-11T02:47:09.547Z,42.30
2018-05-11T02:48:09.457Z,40.30
2018-05-11T02:49:09.367Z,42.80
2018-05-11T02:50:09.273Z,41.70
2018-05-11T02:51:09.215Z,42.10
2018-05-11T02:52:09.086Z,41.10
2018-05-11T02:53:08.993Z,42.20
2018-05-11T02:54:08.904Z,43.00
2018-05-11T02:55:08.810Z,42.50
2018-05-11T02:56:08.747Z,41.00
2018-05-11T02:57:08.626Z,41.40
2018-05-11T02:58:08.534Z,44.30
2018-05-11T02:59:08.443Z,42.80
2018-05-11T03:00:08.443Z,44.10
2018-05-11T03:01:08.290Z,43.80
2018-05-11T03:02:08.167Z,44.30
2018-05-11T03:03:08.074Z,43.50
2018-05-11T03:04:07.981Z,42.70
2018-05-11T03:05:07.888Z,42.50
2018-05-11T03:06:07.834Z,42.50
2018-05-11T03:07:07.797Z,43.30
2018-05-11T03:08:07.610Z,42.00
2018-05-11T03:09:07.520Z,43.40
2018-05-11T03:10:07.426Z,43.80
2018-05-11T03:11:07.364Z,42.10
2018-05-11T03:12:07.244Z,44.10
2018-05-11T03:13:07.149Z,44.10
2018-05-11T03:14:07.149Z,44.90
2018-05-11T03:15:06.962Z,44.70
2018-05-11T03:16:06.904Z,42.50
2018-05-11T03:17:06.781Z,44.40
2018-05-11T03:18:06.684Z,43.90
2018-05-11T03:19:06.611Z,43.50
2018-05-11T03:20:06.510Z,43.90
2018-05-11T03:21:06.534Z,45.00
2018-05-11T03:22:06.316Z,45.50
2018-05-11T03:23:06.223Z,45.20
2018-05-11T03:24:06.133Z,45.00
2018-05-11T03:25:06.043Z,47.40
2018-05-11T03:26:05.981Z,45.50
2018-05-11T03:27:05.856Z,44.20
2018-05-11T03:28:05.867Z,47.20
2018-05-11T03:29:05.671Z,47.10
2018-05-11T03:30:05.579Z,46.00
2018-05-11T03:31:05.489Z,45.70
2018-05-11T03:32:05.429Z,42.80
2018-05-11T03:33:05.303Z,47.40
2018-05-11T03:34:05.210Z,45.20
2018-05-11T03:35:05.206Z,44.70
2018-05-11T03:36:05.025Z,43.10
2018-05-11T03:37:04.962Z,47.20
2018-05-11T03:38:04.839Z,43.50
2018-05-11T03:39:04.760Z,44.90
2018-05-11T03:40:04.656Z,43.80
2018-05-11T03:41:04.566Z,43.70
2018-05-11T03:42:04.595Z,43.30
2018-05-11T03:43:04.375Z,41.00
2018-05-11T03:44:04.285Z,42.20
2018-05-11T03:45:04.194Z,40.00
2018-05-11T03:46:04.103Z,43.30
2018-05-11T03:47:04.038Z,40.90
2018-05-11T03:48:03.918Z,40.60
2018-05-11T03:49:03.932Z,40.30
2018-05-11T03:50:03.738Z,42.10
2018-05-11T03:51:03.640Z,40.00
2018-05-11T03:52:03.576Z,38.70
2018-05-11T03:53:03.456Z,40.50
2018-05-11T03:54:03.361Z,40.30
2018-05-11T03:55:03.271Z,40.90
2018-05-11T03:56:03.270Z,41.10
2018-05-11T03:57:03.127Z,41.40
2018-05-11T03:58:02.991Z,41.50
2018-05-11T03:59:02.899Z,40.00
2018-05-11T04:00:02.879Z,39.30
2018-05-11T04:01:02.716Z,38.40
2018-05-11T04:02:02.649Z,39.30
2018-05-11T04:03:02.526Z,39.20
2018-05-11T04:04:02.436Z,37.10
2018-05-11T04:05:02.347Z,38.40
2018-05-11T04:06:02.257Z,38.40
2018-05-11T04:07:02.189Z,37.40
2018-05-11T04:08:02.072Z,40.00
2018-05-11T04:09:01.975Z,39.10
2018-05-11T04:10:01.896Z,40.90
2018-05-11T04:11:01.793Z,40.20
2018-05-11T04:12:01.730Z,38.90
2018-05-11T04:13:01.603Z,38.90
2018-05-11T04:14:01.511Z,41.40
2018-05-11T04:15:01.420Z,39.40
2018-05-11T04:16:01.327Z,38.50
2018-05-11T04:17:01.267Z,40.70
2018-05-11T04:18:01.140Z,38.40
2018-05-11T04:19:01.052Z,39.20
2018-05-11T04:20:00.952Z,39.60
2018-05-11T04:21:00.864Z,37.80
2018-05-11T04:22:00.775Z,36.70
2018-05-11T04:23:00.711Z,37.90
2018-05-11T04:24:00.588Z,37.70
2018-05-11T04:25:00.492Z,36.60
2018-05-11T04:26:00.404Z,37.00
2018-05-11T04:27:00.308Z,36.70
2018-05-11T04:28:00.248Z,35.80
2018-05-11T04:29:00.124Z,35.60
2018-05-11T04:30:00.028Z,36.40
2018-05-11T04:30:59.942Z,37.30
2018-05-11T04:31:59.845Z,36.70
2018-05-11T04:32:59.783Z,38.10
2018-05-11T04:33:59.657Z,38.70
2018-05-11T04:34:59.568Z,37.60
2018-05-11T04:35:59.472Z,38.90
2018-05-11T04:36:59.383Z,37.80
2018-05-11T04:37:59.320Z,36.20
2018-05-11T04:38:59.198Z,35.20
2018-05-11T04:39:59.105Z,35.00
2018-05-11T04:40:59.008Z,35.70
2018-05-11T04:41:58.917Z,33.70
2018-05-11T04:42:58.858Z,37.60
2018-05-11T04:43:58.733Z,36.80
2018-05-11T04:44:58.922Z,36.00
2018-05-11T04:45:58.546Z,32.70
2018-05-11T04:46:58.455Z,36.50
2018-05-11T04:47:58.393Z,33.70
2018-05-11T04:48:58.271Z,34.70
2018-05-11T04:49:58.176Z,34.10
2018-05-11T04:50:58.083Z,35.30
2018-05-11T04:51:57.991Z,34.40
2018-05-11T04:52:57.931Z,33.20
2018-05-11T04:53:57.805Z,35.00
2018-05-11T04:54:57.713Z,35.70
2018-05-11T04:55:57.619Z,35.70
2018-05-11T04:56:57.529Z,34.30
2018-05-11T04:57:57.468Z,33.00
2018-05-11T04:58:57.341Z,33.40
2018-05-11T04:59:57.250Z,32.50
2018-05-11T05:00:57.156Z,30.50
2018-05-11T05:01:57.064Z,31.30
2018-05-11T05:02:56.979Z,31.30
2018-05-11T05:03:56.919Z,31.50
2018-05-11T05:04:56.785Z,31.10
2018-05-11T05:05:56.693Z,30.60
2018-05-11T05:06:56.602Z,31.60
2018-05-11T05:07:56.509Z,30.60
2018-05-11T05:08:56.445Z,29.20
2018-05-11T05:09:56.321Z,28.80
2018-05-11T05:10:56.228Z,27.40
2018-05-11T05:11:56.138Z,28.90
2018-05-11T05:12:56.046Z,27.60
2018-05-11T05:13:55.982Z,25.30
2018-05-11T05:14:55.860Z,26.90
2018-05-11T05:15:55.766Z,25.30
2018-05-11T05:16:55.685Z,25.70
2018-05-11T05:17:55.581Z,25.70
2018-05-11T05:18:55.519Z,25.90
2018-05-11T05:19:55.398Z,24.20
2018-05-11T05:20:55.302Z,24.80
2018-05-11T05:21:55.211Z,24.70
2018-05-11T05:22:55.120Z,23.30
2018-05-11T05:23:55.062Z,24.00
2018-05-11T05:24:54.937Z,23.80
2018-05-11T05:25:54.842Z,23.90
2018-05-11T05:26:54.747Z,23.30
2018-05-11T05:27:54.656Z,22.60
2018-05-11T05:28:54.595Z,22.50
2018-05-11T05:29:54.471Z,21.80
2018-05-11T05:30:54.377Z,21.00
2018-05-11T05:31:54.291Z,21.70
2018-05-11T05:32:54.196Z,22.60
2018-05-11T05:33:54.132Z,21.60
2018-05-11T05:34:54.011Z,22.00
2018-05-11T05:35:53.916Z,21.90
2018-05-11T05:36:53.826Z,21.90
2018-05-11T05:37:53.733Z,23.20
2018-05-11T05:38:53.673Z,23.40
2018-05-11T05:39:53.553Z,22.80
2018-05-11T05:40:53.458Z,24.00
2018-05-11T05:41:53.375Z,23.50
2018-05-11T05:42:53.274Z,24.20
2018-05-11T05:43:53.215Z,23.90
2018-05-11T05:44:53.088Z,24.30
2018-05-11T05:45:53.083Z,24.20
2018-05-11T05:46:52.904Z,24.80
2018-05-11T05:47:52.811Z,24.70
2018-05-11T05:48:52.754Z,24.40
2018-05-11T05:49:52.629Z,24.60
2018-05-11T05:50:52.534Z,25.20
2018-05-11T05:51:52.461Z,24.20
2018-05-11T05:52:52.351Z,25.00
2018-05-11T05:53:52.293Z,25.80
2018-05-11T05:54:52.167Z,25.80
2018-05-11T05:55:52.077Z,25.90
2018-05-11T05:56:51.989Z,26.60
2018-05-11T05:57:51.891Z,25.30
2018-05-11T05:58:51.830Z,27.20
2018-05-11T05:59:51.767Z,26.60
2018-05-11T06:00:51.618Z,27.60
2018-05-11T06:01:51.620Z,28.10
2018-05-11T06:02:51.433Z,27.80
2018-05-11T06:03:51.344Z,29.10
2018-05-11T06:04:51.281Z,29.50
2018-05-11T06:05:51.158Z,28.50
2018-05-11T06:06:51.063Z,30.10
2018-05-11T06:07:50.974Z,27.90
2018-05-11T06:08:50.977Z,28.20
2018-05-11T06:09:50.820Z,28.80
2018-05-11T06:10:50.754Z,29.80
2018-05-11T06:11:50.608Z,29.90
2018-05-11T06:12:50.525Z,30.00
2018-05-11T06:13:50.423Z,30.70
2018-05-11T06:14:50.358Z,30.30
2018-05-11T06:15:50.329Z,32.20
2018-05-11T06:16:50.145Z,30.90
2018-05-11T06:17:50.051Z,31.00
2018-05-11T06:18:49.963Z,30.40
2018-05-11T06:19:49.903Z,30.70
2018-05-11T06:20:49.778Z,31.40
2018-05-11T06:21:49.683Z,30.60
2018-05-11T06:22:49.733Z,32.00
2018-05-11T06:23:49.498Z,32.00
2018-05-11T06:24:49.516Z,32.60
2018-05-11T06:25:49.318Z,31.50
2018-05-11T06:26:49.234Z,30.80
2018-05-11T06:27:49.132Z,31.60
2018-05-11T06:28:49.041Z,31.90
2018-05-11T06:29:49.082Z,31.30
2018-05-11T06:30:48.856Z,32.60
2018-05-11T06:31:48.763Z,31.70
2018-05-11T06:32:48.673Z,31.00
2018-05-11T06:33:48.579Z,31.90
2018-05-11T06:34:48.522Z,32.40
2018-05-11T06:35:48.396Z,31.70
2018-05-11T06:36:48.398Z,32.30
2018-05-11T06:37:48.216Z,32.40
2018-05-11T06:38:48.120Z,32.80
2018-05-11T06:39:48.059Z,31.80
2018-05-11T06:40:47.939Z,30.70
2018-05-11T06:41:47.843Z,29.90
2018-05-11T06:42:47.751Z,30.50
2018-05-11T06:43:47.766Z,29.60
2018-05-11T06:44:47.599Z,31.20
2018-05-11T06:45:47.479Z,29.80
2018-05-11T06:46:47.385Z,30.90
2018-05-11T06:47:47.294Z,29.70
2018-05-11T06:48:47.199Z,29.60
2018-05-11T06:49:47.141Z,29.60
2018-05-11T06:50:47.120Z,28.50
2018-05-11T06:51:46.927Z,28.10
2018-05-11T06:52:46.839Z,28.40
2018-05-11T06:53:46.740Z,27.20
2018-05-11T06:54:46.684Z,26.40
2018-05-11T06:55:46.587Z,28.20
2018-05-11T06:56:46.466Z,26.90
2018-05-11T06:57:46.471Z,27.10
2018-05-11T06:58:46.284Z,24.90
2018-05-11T06:59:46.222Z,23.90
2018-05-11T07:00:46.103Z,23.30
2018-05-11T07:01:46.012Z,22.60
2018-05-11T07:02:45.920Z,21.70
2018-05-11T07:03:45.829Z,20.80
2018-05-11T07:04:45.842Z,20.00
2018-05-11T07:05:45.650Z,20.70
2018-05-11T07:06:45.550Z,20.50
2018-05-11T07:07:45.492Z,20.60
2018-05-11T07:08:45.370Z,20.60
2018-05-11T07:09:45.283Z,20.20
2018-05-11T07:10:45.220Z,20.20
2018-05-11T07:11:45.099Z,20.60
2018-05-11T07:12:45.009Z,20.00
2018-05-11T07:13:44.914Z,19.40
2018-05-11T07:14:44.828Z,18.40
2018-05-11T07:15:44.766Z,17.90
2018-05-11T07:16:44.651Z,17.80
2018-05-11T07:17:44.553Z,18.20
2018-05-11T07:18:44.461Z,18.80
2018-05-11T07:19:44.376Z,17.40
2018-05-11T07:20:44.311Z,18.30
2018-05-11T07:21:44.192Z,18.10
2018-05-11T07:22:44.098Z,18.00
2018-05-11T07:23:44.012Z,17.90
2018-05-11T07:24:43.924Z,17.30
2018-05-11T07:25:43.863Z,17.30
2018-05-11T07:26:43.743Z,16.50
2018-05-11T07:27:43.650Z,16.70
2018-05-11T07:28:43.559Z,17.70
2018-05-11T07:29:43.468Z,17.30
2018-05-11T07:30:43.422Z,17.20
2018-05-11T07:31:43.290Z,18.10
2018-05-11T07:32:43.200Z,17.60
2018-05-11T07:33:43.109Z,17.10
2018-05-11T07:34:43.022Z,16.30
2018-05-11T07:35:42.964Z,17.80
2018-05-11T07:36:42.842Z,16.90
2018-05-11T07:37:42.753Z,16.80
2018-05-11T07:38:42.663Z,15.90
2018-05-11T07:39:42.575Z,15.60
2018-05-11T07:40:42.514Z,16.30
2018-05-11T07:41:42.480Z,16.10
2018-05-11T07:42:42.304Z,16.30
2018-05-11T07:43:42.220Z,18.00
2018-05-11T07:44:42.128Z,17.40
2018-05-11T07:45:42.070Z,17.30
2018-05-11T07:46:41.948Z,18.10
2018-05-11T07:47:41.860Z,18.60
2018-05-11T07:48:41.772Z,17.20
2018-05-11T07:49:41.682Z,17.70
2018-05-11T07:50:41.624Z,17.00
2018-05-11T07:51:41.548Z,17.10
2018-05-11T07:52:41.417Z,16.40
2018-05-11T07:53:41.325Z,17.30
2018-05-11T07:54:41.298Z,18.60
2018-05-11T07:55:41.178Z,20.80
2018-05-11T07:56:41.059Z,20.30
2018-05-11T07:57:40.971Z,20.30
2018-05-11T07:58:40.882Z,20.20
2018-05-11T07:59:40.790Z,20.50
2018-05-11T08:00:40.731Z,20.30
2018-05-11T08:03:12.066Z,20.60
2018-05-11T08:04:12.239Z,20.40
2018-05-11T08:05:11.856Z,18.10
2018-05-11T08:06:12.699Z,19.50
2018-05-11T08:07:11.673Z,19.20
2018-05-11T08:08:11.583Z,19.50
2018-05-11T08:09:11.591Z,21.20
2018-05-11T08:10:11.410Z,20.00
2018-05-11T08:11:11.350Z,20.30
2018-05-11T08:12:11.225Z,19.80
2018-05-11T08:13:11.143Z,19.60
2018-05-11T08:14:11.137Z,20.00
2018-05-11T08:15:10.961Z,21.30
2018-05-11T08:16:10.904Z,21.20
2018-05-11T08:17:10.785Z,21.20
2018-05-11T08:18:10.695Z,19.00
2018-05-11T08:19:10.602Z,17.10
2018-05-11T08:20:11.165Z,14.80
2018-05-11T08:21:10.460Z,15.40
2018-05-11T08:22:10.337Z,14.70
2018-05-11T08:23:10.246Z,14.60
2018-05-11T08:24:10.158Z,14.90
2018-05-11T08:25:10.069Z,14.10
2018-05-11T08:26:10.010Z,14.40
2018-05-11T08:27:09.894Z,13.10
2018-05-11T08:28:09.800Z,13.00
2018-05-11T08:29:09.713Z,13.90
2018-05-11T08:30:09.626Z,14.00
2018-05-11T08:31:09.564Z,13.70
2018-05-11T08:32:09.445Z,14.10
2018-05-11T08:33:09.356Z,13.10
2018-05-11T08:34:09.266Z,12.00
2018-05-11T08:35:09.177Z,12.60
2018-05-11T08:36:09.118Z,12.60
2018-05-11T08:37:08.998Z,12.90
2018-05-11T08:38:08.912Z,12.50
2018-05-11T08:39:08.820Z,12.40
2018-05-11T08:40:08.730Z,12.00
2018-05-11T08:41:08.673Z,12.60
2018-05-11T08:42:08.556Z,12.10
2018-05-11T08:43:08.461Z,11.20
2018-05-11T08:44:08.373Z,11.50
2018-05-11T08:45:08.287Z,12.30
2018-05-11T08:46:08.227Z,11.60
2018-05-11T08:47:08.674Z,11.60
2018-05-11T08:48:08.016Z,11.60
2018-05-11T08:49:07.928Z,11.50
2018-05-11T08:50:07.840Z,11.80
2018-05-11T08:51:07.752Z,11.70
2018-05-11T08:52:07.697Z,11.20
2018-05-11T08:53:07.569Z,11.10
2018-05-11T08:54:07.484Z,11.50
2018-05-11T08:55:07.393Z,11.80
2018-05-11T08:56:07.313Z,10.90
2018-05-11T08:57:07.291Z,10.90
2018-05-11T08:58:07.132Z,11.20
2018-05-11T08:59:07.046Z,10.90
2018-05-11T09:00:06.952Z,10.60
2018-05-11T09:01:06.869Z,11.00
2018-05-11T09:02:06.807Z,10.80
2018-05-11T09:03:06.809Z,10.90
2018-05-11T09:04:06.598Z,10.60
2018-05-11T09:05:06.513Z,10.10
2018-05-11T09:06:06.422Z,10.30
2018-05-11T09:07:06.363Z,10.10
2018-05-11T09:08:06.247Z,10.00
2018-05-11T09:09:06.157Z,9.60
2018-05-11T09:10:06.071Z,10.20
2018-05-11T09:11:05.984Z,10.40
2018-05-11T09:12:05.928Z,10.20
2018-05-11T09:13:05.808Z,9.90
2018-05-11T09:14:05.720Z,9.50
2018-05-11T09:15:05.637Z,10.00
2018-05-11T09:16:05.542Z,10.30
2018-05-11T09:17:05.485Z,10.50
2018-05-11T09:18:05.458Z,10.00
2018-05-11T09:19:05.279Z,11.80
2018-05-11T09:20:05.193Z,10.10
2018-05-11T09:21:05.105Z,12.80
2018-05-11T09:22:05.118Z,11.80
2018-05-11T09:23:04.933Z,11.50
2018-05-11T09:24:04.844Z,10.80
2018-05-11T09:25:04.756Z,10.60
2018-05-11T09:26:04.670Z,11.00
2018-05-11T09:27:04.611Z,10.60
2018-05-11T09:28:04.496Z,10.50
2018-05-11T09:29:05.188Z,10.40
2018-05-11T09:30:04.319Z,10.50
2018-05-11T09:31:04.232Z,10.10
2018-05-11T09:32:04.367Z,10.10
2018-05-11T09:33:04.056Z,9.70
2018-05-11T09:34:03.968Z,10.40
2018-05-11T09:35:04.688Z,9.90
2018-05-11T09:36:03.794Z,12.30
2018-05-11T09:37:03.739Z,12.20
2018-05-11T09:38:03.640Z,15.20
2018-05-11T09:39:03.641Z,16.90
2018-05-11T09:40:03.444Z,16.80
2018-05-11T09:41:03.358Z,16.30
2018-05-11T09:42:03.300Z,15.70
2018-05-11T09:43:03.185Z,16.00
2018-05-11T09:44:03.095Z,14.70
2018-05-11T09:45:03.020Z,15.00
2018-05-11T09:46:03.014Z,13.90
2018-05-11T09:47:02.883Z,13.60
2018-05-11T09:48:02.747Z,16.00
2018-05-11T09:49:02.661Z,17.10
2018-05-11T09:51:34.021Z,17.40
2018-05-11T09:52:33.937Z,17.40
2018-05-11T09:53:33.817Z,16.50
2018-05-11T09:56:05.192Z,18.30
2018-05-11T09:57:05.471Z,17.80
2018-05-11T09:58:04.983Z,18.80
2018-05-11T09:59:04.894Z,18.20
2018-05-11T10:00:04.803Z,18.50
2018-05-11T10:01:04.714Z,18.70
2018-05-11T10:02:04.632Z,17.90
2018-05-11T10:03:04.971Z,18.40
2018-05-11T10:04:04.473Z,17.30
2018-05-11T10:05:04.367Z,17.70
2018-05-11T10:06:04.280Z,18.30
2018-05-11T10:07:04.195Z,17.70
2018-05-11T10:08:04.137Z,17.40
2018-05-11T10:09:04.019Z,17.30
2018-05-11T10:10:04.035Z,17.70
2018-05-11T10:11:03.845Z,18.10
2018-05-11T10:12:03.760Z,17.10
2018-05-11T10:13:03.701Z,16.30
2018-05-11T10:14:03.583Z,15.50
2018-05-11T10:15:03.495Z,16.20
2018-05-11T10:16:03.415Z,15.40
2018-05-11T10:17:03.424Z,15.30
2018-05-11T10:18:03.262Z,14.90
2018-05-11T10:19:03.179Z,15.10
2018-05-11T10:20:03.060Z,14.80
2018-05-11T10:21:02.974Z,15.30
2018-05-11T10:22:02.886Z,15.40
2018-05-11T10:23:02.831Z,15.00
2018-05-11T10:24:02.805Z,16.00
2018-05-11T10:25:02.627Z,15.40
2018-05-11T10:26:02.540Z,15.60
2018-05-11T10:27:02.456Z,16.70
2018-05-11T10:28:02.400Z,15.90
2018-05-11T10:29:02.341Z,16.80
2018-05-11T10:30:02.193Z,16.90
2018-05-11T10:31:02.107Z,16.30
2018-05-11T10:32:02.016Z,16.00
2018-05-11T10:33:01.961Z,16.40
2018-05-11T10:34:01.844Z,16.50
2018-05-11T10:35:01.760Z,16.20
2018-05-11T10:36:01.670Z,15.70
2018-05-11T10:37:01.599Z,15.40
2018-05-11T10:38:01.631Z,16.10
2018-05-11T10:39:01.411Z,16.40
2018-05-11T10:40:01.325Z,16.20
2018-05-11T10:41:01.264Z,15.00
2018-05-11T10:42:01.153Z,16.40
2018-05-11T10:43:01.095Z,16.70
2018-05-11T10:44:01.068Z,16.70
2018-05-11T10:45:00.890Z,16.60
2018-05-11T10:46:00.802Z,16.50
2018-05-11T10:47:00.718Z,17.10
2018-05-11T10:48:00.665Z,17.10
2018-05-11T10:49:00.544Z,17.70
2018-05-11T10:50:00.457Z,17.20
2018-05-11T10:51:00.370Z,15.80
2018-05-11T10:52:00.283Z,16.40
2018-05-11T10:53:00.230Z,18.00
2018-05-11T10:54:00.112Z,16.20
2018-05-11T10:55:00.031Z,28.50
2018-05-11T10:55:59.937Z,18.50
2018-05-11T10:56:59.851Z,16.90
2018-05-11T10:57:59.799Z,16.70
2018-05-11T10:58:59.680Z,16.20
2018-05-11T10:59:59.592Z,16.40
2018-05-11T11:00:59.503Z,15.60
2018-05-11T11:01:59.419Z,15.40
2018-05-11T11:02:59.364Z,15.30
2018-05-11T11:03:59.245Z,15.50
2018-05-11T11:04:59.157Z,15.50
2018-05-11T11:05:59.073Z,16.00
2018-05-11T11:06:58.989Z,17.20
2018-05-11T11:07:58.931Z,16.60
2018-05-11T11:08:58.812Z,17.10
2018-05-11T11:09:58.728Z,16.50
2018-05-11T11:10:58.641Z,16.10
2018-05-11T11:11:58.554Z,16.00
2018-05-11T11:12:58.469Z,15.50
2018-05-11T11:13:58.411Z,16.10
2018-05-11T11:14:58.299Z,16.70
2018-05-11T11:15:58.207Z,16.30
2018-05-11T11:16:58.142Z,16.60
2018-05-11T11:17:58.036Z,16.60
2018-05-11T11:18:57.981Z,15.90
2018-05-11T11:19:57.912Z,15.60
2018-05-11T11:20:57.775Z,15.20
2018-05-11T11:21:57.690Z,15.90
2018-05-11T11:22:57.604Z,16.20
2018-05-11T11:23:57.546Z,14.90
2018-05-11T11:24:57.432Z,15.50
2018-05-11T11:25:57.388Z,16.20
2018-05-11T11:26:57.261Z,16.20
2018-05-11T11:27:57.173Z,15.30
2018-05-11T11:28:57.118Z,15.00
2018-05-11T11:29:57.004Z,14.60
2018-05-11T11:30:56.917Z,14.20
2018-05-11T11:31:56.832Z,14.50
2018-05-11T11:32:56.745Z,14.50
2018-05-11T11:33:56.690Z,13.80
2018-05-11T11:34:56.572Z,14.40
2018-05-11T11:35:56.489Z,14.40
2018-05-11T11:36:56.406Z,14.60
2018-05-11T11:37:56.321Z,14.70
2018-05-11T11:38:56.262Z,13.90
2018-05-11T11:39:56.143Z,14.50
2018-05-11T11:40:56.062Z,14.20
2018-05-11T11:41:55.989Z,13.90
2018-05-11T11:42:55.887Z,14.00
2018-05-11T11:43:55.832Z,14.20
2018-05-11T11:44:55.715Z,13.70
2018-05-11T11:45:55.634Z,13.40
2018-05-11T11:46:55.547Z,13.70
2018-05-11T11:47:55.457Z,13.90
2018-05-11T11:48:55.412Z,13.70
2018-05-11T11:49:55.291Z,13.10
2018-05-11T11:50:55.207Z,14.00
2018-05-11T11:51:55.125Z,14.10
2018-05-11T11:52:55.035Z,13.00
2018-05-11T11:53:54.985Z,13.20
2018-05-11T11:54:54.868Z,13.40
2018-05-11T11:55:54.784Z,12.60
2018-05-11T11:56:54.698Z,12.30
2018-05-11T11:57:54.615Z,12.80
2018-05-11T11:58:54.563Z,13.90
2018-05-11T11:59:54.443Z,12.70
2018-05-11T12:00:54.360Z,13.30
2018-05-11T12:01:54.333Z,12.80
2018-05-11T12:02:54.192Z,12.90
2018-05-11T12:03:54.146Z,12.80
2018-05-11T12:04:54.024Z,12.00
2018-05-11T12:05:53.942Z,12.30
2018-05-11T12:06:53.856Z,12.90
2018-05-11T12:07:53.866Z,12.50
2018-05-11T12:08:53.790Z,11.60
2018-05-11T12:09:53.607Z,12.30
2018-05-11T12:10:53.522Z,11.90
2018-05-11T12:11:53.451Z,11.80
2018-05-11T12:12:53.353Z,12.20
2018-05-11T12:13:53.272Z,12.70
2018-05-11T12:14:53.314Z,12.10
2018-05-11T12:15:53.108Z,11.70
2018-05-11T12:16:53.022Z,12.30
2018-05-11T12:17:52.938Z,12.20
2018-05-11T12:18:52.856Z,12.80
2018-05-11T12:19:52.800Z,12.20
2018-05-11T12:20:52.690Z,12.80
2018-05-11T12:21:52.695Z,13.40
2018-05-11T12:22:52.537Z,12.60
2018-05-11T12:23:52.442Z,12.20
2018-05-11T12:24:52.387Z,12.70
2018-05-11T12:25:52.275Z,13.30
2018-05-11T12:26:52.188Z,13.00
2018-05-11T12:27:52.107Z,13.60
2018-05-11T12:28:52.119Z,13.00
2018-05-11T12:29:51.971Z,13.20
2018-05-11T12:30:51.857Z,13.40
2018-05-11T12:31:51.775Z,12.80
2018-05-11T12:32:51.693Z,12.70
2018-05-11T12:33:51.611Z,12.70
2018-05-11T12:34:51.596Z,12.60
2018-05-11T12:35:51.539Z,12.20
2018-05-11T12:36:51.366Z,12.50
2018-05-11T12:37:51.282Z,12.00
2018-05-11T12:38:51.200Z,11.80
2018-05-11T12:39:51.148Z,12.30
2018-05-11T12:40:51.036Z,12.20
2018-05-11T12:41:50.957Z,11.80
2018-05-11T12:42:50.971Z,12.00
2018-05-11T12:43:50.798Z,11.60
2018-05-11T12:44:50.746Z,11.90
2018-05-11T12:45:50.633Z,11.40
2018-05-11T12:46:50.554Z,10.90
2018-05-11T12:47:50.470Z,11.30
2018-05-11T12:48:50.395Z,11.40
2018-05-11T12:49:50.436Z,10.90
2018-05-11T12:50:50.229Z,11.80
2018-05-11T12:51:50.197Z,11.30
2018-05-11T12:52:50.072Z,11.20
2018-05-11T12:53:49.997Z,11.20
2018-05-11T12:54:49.936Z,11.00
2018-05-11T12:55:49.822Z,10.50